createdAt,value
2022-10-17T00:01:09.392Z,4.07
2022-10-17T00:03:38.540Z,4.93
2022-10-17T00:06:09.389Z,8.57
2022-10-17T00:08:38.678Z,4.43
2022-10-17T00:11:09.353Z,5.63
2022-10-17T00:13:37.718Z,5.10
2022-10-17T00:16:06.700Z,8.53
2022-10-17T00:18:35.018Z,6.23
2022-10-17T00:21:03.452Z,5.10
2022-10-17T00:23:34.459Z,7.07
2022-10-17T00:26:04.983Z,7.50
2022-10-17T00:28:33.911Z,7.10
2022-10-17T00:31:04.574Z,5.73
2022-10-17T00:33:34.064Z,6.40
2022-10-17T00:36:07.106Z,6.53
2022-10-17T00:38:38.239Z,5.97
2022-10-17T00:41:07.146Z,4.50
2022-10-17T00:43:51.090Z,8.80
2022-10-17T00:46:19.918Z,4.27
2022-10-17T00:48:49.748Z,4.17
2022-10-17T00:51:19.629Z,5.87
2022-10-17T00:53:49.720Z,5.97
2022-10-17T00:56:19.879Z,7.40
2022-10-17T00:58:48.728Z,5.67
2022-10-17T01:01:17.080Z,6.10
2022-10-17T01:03:45.540Z,6.60
2022-10-17T01:06:13.982Z,4.97
2022-10-17T01:08:42.426Z,5.90
2022-10-17T01:11:21.771Z,6.57
2022-10-17T01:13:53.301Z,5.40
2022-10-17T01:16:31.126Z,6.70
2022-10-17T01:19:04.308Z,8.50
2022-10-17T01:21:38.770Z,5.77
2022-10-17T01:24:48.666Z,5.10
2022-10-17T01:27:34.853Z,4.57
2022-10-17T01:30:23.000Z,7.57
2022-10-17T01:32:56.563Z,3.97
2022-10-17T01:35:28.484Z,5.13
2022-10-17T01:38:02.610Z,6.37
2022-10-17T01:40:35.193Z,4.10
2022-10-17T01:43:06.679Z,3.63
2022-10-17T01:45:39.570Z,3.97
2022-10-17T01:48:14.132Z,4.93
2022-10-17T01:50:46.132Z,4.83
2022-10-17T01:53:17.885Z,4.37
2022-10-17T01:55:47.644Z,11.47
2022-10-17T01:58:20.053Z,5.97
2022-10-17T02:00:49.047Z,6.30
2022-10-17T02:03:20.570Z,4.67
2022-10-17T02:05:49.342Z,5.47
2022-10-17T02:08:26.829Z,5.43
2022-10-17T02:10:58.838Z,7.80
2022-10-17T02:13:35.181Z,6.07
2022-10-17T02:16:12.782Z,9.50
2022-10-17T02:18:49.008Z,5.93
2022-10-17T02:21:21.609Z,4.20
2022-10-17T02:23:54.081Z,6.60
2022-10-17T02:26:27.223Z,5.53
2022-10-17T02:29:02.161Z,4.67
2022-10-17T02:31:32.696Z,5.53
2022-10-17T02:34:03.908Z,6.60
2022-10-17T02:36:37.915Z,6.23
2022-10-17T02:39:07.961Z,5.67
2022-10-17T02:41:37.852Z,6.30
2022-10-17T02:44:08.054Z,5.50
2022-10-17T02:46:36.903Z,4.77
2022-10-17T02:49:11.585Z,5.30
2022-10-17T02:51:44.505Z,4.40
2022-10-17T02:54:19.427Z,6.10
2022-10-17T02:56:52.367Z,17.53
2022-10-17T02:59:22.939Z,7.00
2022-10-17T03:01:52.277Z,7.13
2022-10-17T03:04:21.768Z,5.13
2022-10-17T03:06:50.256Z,6.53
2022-10-17T03:09:19.930Z,5.20
2022-10-17T03:11:48.163Z,10.47
2022-10-17T03:14:16.551Z,5.50
2022-10-17T03:16:44.857Z,6.03
2022-10-17T03:19:13.332Z,6.77
2022-10-17T03:21:42.951Z,4.90
2022-10-17T03:24:11.529Z,8.80
2022-10-17T03:26:40.477Z,5.23
2022-10-17T03:29:09.466Z,6.33
2022-10-17T03:31:37.795Z,7.97
2022-10-17T03:34:07.864Z,5.93
2022-10-17T03:36:36.189Z,6.33
2022-10-17T03:39:06.627Z,5.57
2022-10-17T03:41:35.417Z,7.30
2022-10-17T03:44:03.838Z,6.07
2022-10-17T03:46:32.927Z,9.03
2022-10-17T03:49:02.341Z,6.57
2022-10-17T03:51:31.090Z,7.10
2022-10-17T03:54:06.015Z,5.80
2022-10-17T03:56:34.741Z,4.60
2022-10-17T03:59:14.022Z,7.67
2022-10-17T04:01:44.320Z,7.13
2022-10-17T04:04:14.458Z,11.87
2022-10-17T04:06:43.220Z,4.93
2022-10-17T04:09:13.996Z,5.77
2022-10-17T04:11:54.013Z,6.83
2022-10-17T04:14:23.594Z,6.77
2022-10-17T04:16:53.460Z,7.17
2022-10-17T04:19:22.938Z,9.27
2022-10-17T04:21:51.983Z,8.33
2022-10-17T04:24:22.729Z,14.53
2022-10-17T04:26:51.933Z,7.70
2022-10-17T04:29:22.136Z,8.67
2022-10-17T04:31:53.522Z,6.70
2022-10-17T04:34:29.075Z,8.37
2022-10-17T04:36:57.516Z,6.60
2022-10-17T04:39:27.392Z,5.70
2022-10-17T04:41:57.152Z,5.83
2022-10-17T04:44:25.606Z,6.73
2022-10-17T04:46:54.548Z,6.20
2022-10-17T04:49:24.275Z,6.60
2022-10-17T04:51:55.958Z,5.70
2022-10-17T04:54:33.998Z,7.70
2022-10-17T04:57:09.751Z,6.37
2022-10-17T04:59:38.540Z,5.33
2022-10-17T05:02:19.064Z,12.10
2022-10-17T05:04:48.295Z,8.00
2022-10-17T05:07:17.673Z,8.53
2022-10-17T05:10:10.841Z,7.90
2022-10-17T05:12:41.168Z,8.67
2022-10-17T05:15:10.657Z,7.17
2022-10-17T05:17:39.170Z,5.30
2022-10-17T05:20:09.520Z,9.43
2022-10-17T05:22:41.166Z,7.47
2022-10-17T05:25:12.997Z,7.93
2022-10-17T05:27:41.590Z,5.43
2022-10-17T05:30:10.925Z,5.93
2022-10-17T05:32:40.797Z,6.50
2022-10-17T05:35:10.144Z,6.73
2022-10-17T05:37:39.970Z,13.33
2022-10-17T05:40:09.732Z,8.10
2022-10-17T05:45:13.446Z,8.67
2022-10-17T05:47:42.545Z,14.23
2022-10-17T05:50:11.591Z,16.07
2022-10-17T05:52:59.119Z,22.17
2022-10-17T05:55:27.546Z,19.27
2022-10-17T05:57:58.451Z,13.83
2022-10-17T06:00:30.329Z,14.83
2022-10-17T06:03:00.178Z,25.73
2022-10-17T06:05:28.665Z,40.23
2022-10-17T06:08:01.031Z,27.67
2022-10-17T06:10:32.548Z,26.90
2022-10-17T06:13:03.048Z,35.10
2022-10-17T06:15:31.527Z,35.57
2022-10-17T06:18:04.683Z,22.90
2022-10-17T06:20:33.841Z,30.50
2022-10-17T06:23:03.210Z,32.37
2022-10-17T06:26:00.120Z,20.07
2022-10-17T06:28:30.311Z,43.23
2022-10-17T06:30:59.567Z,31.63
2022-10-17T06:33:28.341Z,20.00
2022-10-17T06:35:57.509Z,28.43
2022-10-17T06:38:27.768Z,20.93
2022-10-17T06:41:04.923Z,23.03
2022-10-17T06:43:34.856Z,28.80
2022-10-17T06:46:29.821Z,32.33
2022-10-17T06:49:04.634Z,25.70
2022-10-17T06:52:05.528Z,29.23
2022-10-17T06:54:43.242Z,23.13
2022-10-17T06:57:30.508Z,37.13
2022-10-17T07:00:19.519Z,25.40
2022-10-17T07:02:52.789Z,39.10
2022-10-17T07:05:22.184Z,67.77
2022-10-17T07:07:52.023Z,23.63
2022-10-17T07:10:20.834Z,51.20
2022-10-17T07:12:49.367Z,53.53
2022-10-17T07:15:19.248Z,17.07
2022-10-17T07:17:50.281Z,18.20
2022-10-17T07:20:19.752Z,12.83
2022-10-17T07:22:48.186Z,41.73
2022-10-17T07:25:17.194Z,16.73
2022-10-17T07:27:51.232Z,15.83
2022-10-17T07:30:22.218Z,16.30
2022-10-17T07:33:53.366Z,20.20
2022-10-17T07:36:22.517Z,23.30
2022-10-17T07:38:51.616Z,11.40
2022-10-17T07:41:21.957Z,12.77
2022-10-17T07:43:51.805Z,14.27
2022-10-17T07:46:24.928Z,12.23
2022-10-17T07:48:54.695Z,21.40
2022-10-17T07:51:23.572Z,16.97
2022-10-17T07:53:52.697Z,41.50
2022-10-17T07:56:24.746Z,17.80
2022-10-17T07:58:54.144Z,65.40
2022-10-17T08:01:22.507Z,40.53
2022-10-17T08:03:50.796Z,16.60
2022-10-17T08:06:20.605Z,38.07
2022-10-17T08:08:49.154Z,20.50
2022-10-17T08:11:17.875Z,9.67
2022-10-17T08:13:46.413Z,15.57
2022-10-17T08:16:14.762Z,10.27
2022-10-17T08:18:43.921Z,16.10
2022-10-17T08:21:14.045Z,11.10
2022-10-17T08:23:43.785Z,58.20
2022-10-17T08:26:13.522Z,19.17
2022-10-17T08:28:42.078Z,11.30
2022-10-17T08:31:11.943Z,12.60
2022-10-17T08:33:40.746Z,12.03
2022-10-17T08:36:09.852Z,16.40
2022-10-17T08:38:43.057Z,12.13
2022-10-17T08:41:26.145Z,9.93
2022-10-17T08:44:03.745Z,10.50
2022-10-17T08:46:33.769Z,11.63
2022-10-17T08:49:04.508Z,12.03
2022-10-17T08:51:35.262Z,9.40
2022-10-17T08:54:07.662Z,9.63
2022-10-17T08:56:49.048Z,9.07
2022-10-17T08:59:24.005Z,10.57
2022-10-17T09:02:01.191Z,12.10
2022-10-17T09:04:42.802Z,9.97
2022-10-17T09:07:16.033Z,10.97
2022-10-17T09:09:51.931Z,9.73
2022-10-17T09:12:24.930Z,8.90
2022-10-17T09:15:12.714Z,8.87
2022-10-17T09:17:50.506Z,8.30
2022-10-17T09:20:22.190Z,11.10
2022-10-17T09:22:53.492Z,8.40
2022-10-17T09:25:23.424Z,8.40
2022-10-17T09:27:56.421Z,7.50
2022-10-17T09:30:44.561Z,11.13
2022-10-17T09:33:28.320Z,8.63
2022-10-17T09:36:10.647Z,10.00
2022-10-17T09:38:41.739Z,9.20
2022-10-17T09:41:43.028Z,8.47
2022-10-17T09:44:25.587Z,9.03
2022-10-17T09:47:19.146Z,8.97
2022-10-17T09:49:49.335Z,7.33
2022-10-17T09:52:21.371Z,8.83
2022-10-17T09:54:51.601Z,9.27
2022-10-17T09:57:21.105Z,11.83
2022-10-17T09:59:58.553Z,6.73
2022-10-17T10:02:28.797Z,8.60
2022-10-17T10:05:04.946Z,6.27
2022-10-17T10:07:36.792Z,8.60
2022-10-17T10:10:08.031Z,6.67
2022-10-17T10:12:38.175Z,7.23
2022-10-17T10:15:33.337Z,7.03
2022-10-17T10:18:01.863Z,5.90
2022-10-17T10:20:33.492Z,7.93
2022-10-17T10:23:13.400Z,7.10
2022-10-17T10:25:54.090Z,6.03
2022-10-17T10:28:26.222Z,8.43
2022-10-17T10:30:57.217Z,12.23
2022-10-17T10:33:28.404Z,5.23
2022-10-17T10:35:58.555Z,5.93
2022-10-17T10:38:27.188Z,5.43
2022-10-17T10:40:56.923Z,6.97
2022-10-17T10:43:30.518Z,4.50
2022-10-17T10:46:01.644Z,4.80
2022-10-17T10:48:33.209Z,7.50
2022-10-17T10:51:03.668Z,8.03
2022-10-17T10:53:38.194Z,7.03
2022-10-17T10:56:10.918Z,6.30
2022-10-17T10:58:45.365Z,6.57
2022-10-17T11:01:20.204Z,4.00
2022-10-17T11:03:56.866Z,6.07
2022-10-17T11:06:33.753Z,6.27
2022-10-17T11:09:12.752Z,8.80
2022-10-17T11:11:44.696Z,4.90
2022-10-17T11:14:16.826Z,6.87
2022-10-17T11:16:50.472Z,4.13
2022-10-17T11:19:25.995Z,4.73
2022-10-17T11:22:10.436Z,6.40
2022-10-17T11:24:41.968Z,5.47
2022-10-17T11:27:10.705Z,4.03
2022-10-17T11:29:41.463Z,4.77
2022-10-17T11:32:16.251Z,5.93
2022-10-17T11:34:46.833Z,4.07
2022-10-17T11:37:18.864Z,4.87
2022-10-17T11:39:51.600Z,10.70
2022-10-17T11:42:22.623Z,7.17
2022-10-17T11:44:54.860Z,5.30
2022-10-17T11:47:32.069Z,6.43
2022-10-17T11:52:56.982Z,4.40
2022-10-17T11:55:27.427Z,9.13
2022-10-17T11:58:03.000Z,4.43
2022-10-17T12:00:46.133Z,4.50
2022-10-17T12:03:30.276Z,6.93
2022-10-17T12:06:01.555Z,5.90
2022-10-17T12:08:34.700Z,5.33
2022-10-17T12:11:12.455Z,6.83
2022-10-17T12:13:55.108Z,4.27
2022-10-17T12:19:33.894Z,6.10
2022-10-17T12:22:21.497Z,3.40
2022-10-17T12:25:00.898Z,5.10
2022-10-17T12:27:36.097Z,4.77
2022-10-17T12:30:07.771Z,6.50
2022-10-17T12:33:00.074Z,4.87
2022-10-17T12:35:28.278Z,5.13
2022-10-17T12:38:09.639Z,5.53
2022-10-17T12:41:08.087Z,6.20
2022-10-17T12:43:46.778Z,6.50
2022-10-17T12:46:51.030Z,7.10
2022-10-17T12:49:47.846Z,5.00
2022-10-17T12:52:25.858Z,6.97
2022-10-17T12:55:11.483Z,4.67
2022-10-17T12:57:45.586Z,5.10
2022-10-17T13:00:19.192Z,5.30
2022-10-17T13:02:49.050Z,5.67
2022-10-17T13:05:22.366Z,4.40
2022-10-17T13:07:52.762Z,4.10
2022-10-17T13:10:24.060Z,8.20
2022-10-17T13:13:04.617Z,9.20
2022-10-17T13:15:33.295Z,8.57
2022-10-17T13:18:02.538Z,5.60
2022-10-17T13:20:32.756Z,6.70
2022-10-17T13:23:02.566Z,4.20
2022-10-17T13:25:30.967Z,6.67
2022-10-17T13:28:09.675Z,7.77
2022-10-17T13:30:38.435Z,4.87
2022-10-17T13:33:26.040Z,4.20
2022-10-17T13:36:01.663Z,5.53
2022-10-17T13:38:35.631Z,7.07
2022-10-17T13:41:34.355Z,6.57
2022-10-17T13:44:02.746Z,6.13
2022-10-17T13:46:38.913Z,8.83
2022-10-17T13:49:14.244Z,7.20
2022-10-17T13:51:44.907Z,8.13
2022-10-17T13:54:33.009Z,4.23
2022-10-17T13:57:02.392Z,6.13
2022-10-17T13:59:35.454Z,5.73
2022-10-17T14:02:05.884Z,7.07
2022-10-17T14:04:56.636Z,8.27
2022-10-17T14:07:34.335Z,4.83
2022-10-17T14:10:20.668Z,8.03
2022-10-17T14:12:51.030Z,5.90
2022-10-17T14:15:19.978Z,8.03
2022-10-17T14:17:55.408Z,6.10
2022-10-17T14:20:57.541Z,4.90
2022-10-17T14:23:30.681Z,6.90
2022-10-17T14:26:10.350Z,9.00
2022-10-17T14:28:39.596Z,6.70
2022-10-17T14:31:21.106Z,7.43
2022-10-17T14:33:51.228Z,8.20
2022-10-17T14:36:20.799Z,3.97
2022-10-17T14:38:52.301Z,7.83
2022-10-17T14:44:21.735Z,6.83
2022-10-17T14:46:54.280Z,4.67
2022-10-17T14:49:27.651Z,4.97
2022-10-17T14:52:28.831Z,7.67
2022-10-17T14:54:58.943Z,5.07
2022-10-17T14:57:40.851Z,3.83
2022-10-17T15:00:14.319Z,4.50
2022-10-17T15:02:42.821Z,6.97
2022-10-17T15:05:13.417Z,5.33
2022-10-17T15:07:42.689Z,4.43
2022-10-17T15:10:25.602Z,6.77
2022-10-17T15:12:59.281Z,10.00
2022-10-17T15:15:39.335Z,7.83
2022-10-17T15:18:08.384Z,5.07
2022-10-17T15:20:36.914Z,4.43
2022-10-17T15:23:05.593Z,7.43
2022-10-17T15:25:34.511Z,5.73
2022-10-17T15:28:04.216Z,6.57
2022-10-17T15:30:37.104Z,4.60
2022-10-17T15:33:05.914Z,5.63
2022-10-17T15:35:34.613Z,4.37
2022-10-17T15:38:02.961Z,4.37
2022-10-17T15:40:31.630Z,5.00
2022-10-17T15:43:00.154Z,6.77
2022-10-17T15:45:30.083Z,4.40
2022-10-17T15:48:06.862Z,5.53
2022-10-17T15:50:35.461Z,14.87
2022-10-17T15:53:06.075Z,8.73
2022-10-17T15:55:34.462Z,8.80
2022-10-17T15:58:03.048Z,6.50
2022-10-17T16:00:33.133Z,8.03
2022-10-17T16:03:01.922Z,7.47
2022-10-17T16:05:30.338Z,8.17
2022-10-17T16:07:58.851Z,7.20
2022-10-17T16:10:28.134Z,10.10
2022-10-17T16:12:56.623Z,6.97
2022-10-17T16:15:28.114Z,7.33
2022-10-17T16:18:01.666Z,6.00
2022-10-17T16:20:32.746Z,11.23
2022-10-17T16:23:03.064Z,12.33
2022-10-17T16:25:32.511Z,14.13
2022-10-17T16:28:02.066Z,8.93
2022-10-17T16:30:31.778Z,8.33
2022-10-17T16:33:02.442Z,15.13
2022-10-17T16:35:34.844Z,8.53
2022-10-17T16:38:06.661Z,8.53
2022-10-17T16:40:35.576Z,9.60
2022-10-17T16:43:03.960Z,14.63
2022-10-17T16:45:32.766Z,13.03
2022-10-17T16:48:02.559Z,12.00
2022-10-17T16:50:35.325Z,10.63
2022-10-17T16:53:04.032Z,8.90
2022-10-17T16:55:32.467Z,8.60
2022-10-17T16:58:01.528Z,12.07
2022-10-17T17:00:30.231Z,10.83
2022-10-17T17:02:58.622Z,12.13
2022-10-17T17:05:28.340Z,13.33
2022-10-17T17:07:57.008Z,11.40
2022-10-17T17:10:25.499Z,11.30
2022-10-17T17:12:54.027Z,11.43
2022-10-17T17:15:22.874Z,12.53
2022-10-17T17:17:55.100Z,14.17
2022-10-17T17:20:24.112Z,11.80
2022-10-17T17:22:54.077Z,15.67
2022-10-17T17:25:22.995Z,13.43
2022-10-17T17:27:51.619Z,13.93
2022-10-17T17:30:19.959Z,16.03
2022-10-17T17:32:48.396Z,10.97
2022-10-17T17:35:16.985Z,11.87
2022-10-17T17:37:45.461Z,15.73
2022-10-17T17:40:15.475Z,14.73
2022-10-17T17:42:43.999Z,11.97
2022-10-17T17:45:13.580Z,13.60
2022-10-17T17:47:42.060Z,14.00
2022-10-17T17:50:11.074Z,17.50
2022-10-17T17:52:42.147Z,21.53
2022-10-17T17:55:10.687Z,13.90
2022-10-17T17:57:40.561Z,14.47
2022-10-17T18:00:10.253Z,17.40
2022-10-17T18:02:42.171Z,15.20
2022-10-17T18:05:14.625Z,13.30
2022-10-17T18:07:43.062Z,14.80
2022-10-17T18:12:46.206Z,13.47
2022-10-17T18:15:15.601Z,17.17
2022-10-17T18:17:43.975Z,11.97
2022-10-17T18:20:13.247Z,15.40
2022-10-17T18:22:41.808Z,17.63
2022-10-17T18:25:10.651Z,22.17
2022-10-17T18:27:39.185Z,13.83
2022-10-17T18:30:10.184Z,21.13
2022-10-17T18:32:40.605Z,21.93
2022-10-17T18:35:10.062Z,18.57
2022-10-17T18:37:39.543Z,18.67
2022-10-17T18:40:09.387Z,20.10
2022-10-17T18:42:37.881Z,18.90
2022-10-17T18:45:07.432Z,17.80
2022-10-17T18:47:37.638Z,17.77
2022-10-17T18:50:06.661Z,19.03
2022-10-17T18:52:35.067Z,15.83
2022-10-17T18:55:04.114Z,14.03
2022-10-17T18:57:32.892Z,18.13
2022-10-17T19:00:01.329Z,17.47
2022-10-17T19:02:35.535Z,18.57
2022-10-17T19:05:08.504Z,17.27
2022-10-17T19:07:37.003Z,16.70
2022-10-17T19:10:06.247Z,20.40
2022-10-17T19:12:34.749Z,16.27
2022-10-17T19:15:03.529Z,17.20
2022-10-17T19:17:32.273Z,14.23
2022-10-17T19:20:01.004Z,15.73
2022-10-17T19:22:32.907Z,16.53
2022-10-17T19:25:01.292Z,14.93
2022-10-17T19:27:30.117Z,18.60
2022-10-17T19:29:59.019Z,13.37
2022-10-17T19:32:27.446Z,16.00
2022-10-17T19:34:56.123Z,9.97
2022-10-17T19:37:24.666Z,10.50
2022-10-17T19:39:54.648Z,11.40
2022-10-17T19:42:23.129Z,12.30
2022-10-17T19:44:51.518Z,10.90
2022-10-17T19:47:19.839Z,11.07
2022-10-17T19:49:50.102Z,12.77
2022-10-17T19:52:19.062Z,15.17
2022-10-17T19:54:47.745Z,11.50
2022-10-17T19:57:17.334Z,11.47
2022-10-17T19:59:45.740Z,12.20
2022-10-17T20:02:14.622Z,8.60
2022-10-17T20:04:54.342Z,11.27
2022-10-17T20:07:31.935Z,11.43
2022-10-17T20:10:00.528Z,12.97
2022-10-17T20:12:30.666Z,15.13
2022-10-17T20:15:00.652Z,12.80
2022-10-17T20:17:29.237Z,12.87
2022-10-17T20:19:58.141Z,12.13
2022-10-17T20:22:26.648Z,13.63
2022-10-17T20:24:55.181Z,13.47
2022-10-17T20:27:27.577Z,14.67
2022-10-17T20:30:01.678Z,18.73
2022-10-17T20:32:32.041Z,21.07
2022-10-17T20:35:00.759Z,14.63
2022-10-17T20:37:29.702Z,18.13
2022-10-17T20:40:22.661Z,18.67
2022-10-17T20:42:47.508Z,17.83
2022-10-17T20:45:17.972Z,18.97
2022-10-17T20:47:53.977Z,16.27
2022-10-17T20:50:22.945Z,13.37
2022-10-17T20:53:01.041Z,12.93
2022-10-17T20:55:40.473Z,13.67
2022-10-17T20:58:10.577Z,15.23
2022-10-17T21:00:40.816Z,16.67
2022-10-17T21:03:10.130Z,16.53
2022-10-17T21:05:42.003Z,14.97
2022-10-17T21:08:10.708Z,13.87
2022-10-17T21:10:39.655Z,16.80
2022-10-17T21:13:08.110Z,18.83
2022-10-17T21:15:37.583Z,16.03
2022-10-17T21:18:07.338Z,15.30
2022-10-17T21:20:35.941Z,13.37
2022-10-17T21:23:04.608Z,12.80
2022-10-17T21:25:33.476Z,13.53
2022-10-17T21:28:02.493Z,14.17
2022-10-17T21:30:31.384Z,16.87
2022-10-17T21:32:59.897Z,17.27
2022-10-17T21:35:29.932Z,16.37
2022-10-17T21:37:58.411Z,14.20
2022-10-17T21:40:27.211Z,13.23
2022-10-17T21:42:55.891Z,12.27
2022-10-17T21:45:25.971Z,13.47
2022-10-17T21:48:12.172Z,17.53
2022-10-17T21:50:42.919Z,12.07
2022-10-17T21:53:11.709Z,15.57
2022-10-17T21:55:40.303Z,14.03
2022-10-17T21:58:11.258Z,10.40
2022-10-17T22:00:40.719Z,13.17
2022-10-17T22:03:09.636Z,13.43
2022-10-17T22:05:38.535Z,14.77
2022-10-17T22:08:08.740Z,13.17
2022-10-17T22:10:38.092Z,15.90
2022-10-17T22:13:06.846Z,14.23
2022-10-17T22:15:35.409Z,14.43
2022-10-17T22:18:03.887Z,12.37
2022-10-17T22:20:34.653Z,13.40
2022-10-17T22:23:03.309Z,11.40
2022-10-17T22:25:33.247Z,11.47
2022-10-17T22:28:01.939Z,10.07
2022-10-17T22:30:30.999Z,12.90
2022-10-17T22:32:59.880Z,11.80
2022-10-17T22:35:28.800Z,10.03
2022-10-17T22:37:57.611Z,11.40
2022-10-17T22:40:26.275Z,11.13
2022-10-17T22:42:56.169Z,10.07
2022-10-17T22:45:24.877Z,14.57
2022-10-17T22:47:54.372Z,10.63
2022-10-17T22:50:23.353Z,12.63
2022-10-17T22:52:52.095Z,12.07
2022-10-17T22:55:20.636Z,12.17
2022-10-17T22:57:49.208Z,13.47
2022-10-17T23:00:19.410Z,14.40
2022-10-17T23:02:48.026Z,16.80
2022-10-17T23:05:16.706Z,17.37
2022-10-17T23:07:45.444Z,13.67
2022-10-17T23:10:13.990Z,14.90
2022-10-17T23:12:42.540Z,15.90
2022-10-17T23:15:11.585Z,23.03
2022-10-17T23:17:44.141Z,13.43
2022-10-17T23:20:12.717Z,13.67
2022-10-17T23:22:41.056Z,14.13
2022-10-17T23:25:09.804Z,16.73
2022-10-17T23:27:38.173Z,15.10
2022-10-17T23:30:07.662Z,13.63
2022-10-17T23:32:36.166Z,18.30
2022-10-17T23:35:06.480Z,11.33
2022-10-17T23:37:35.217Z,15.83
2022-10-17T23:40:04.851Z,18.13
2022-10-17T23:42:33.577Z,19.60
2022-10-17T23:45:02.058Z,16.30
2022-10-17T23:47:31.311Z,17.73
2022-10-17T23:50:00.082Z,14.07
2022-10-17T23:52:29.828Z,11.93
2022-10-17T23:54:58.142Z,14.73
2022-10-17T23:57:26.516Z,12.77
2022-10-17T23:59:55.503Z,15.43
